createdAt,value
2017-04-01T00:01:18.347Z,0
2017-04-01T00:02:17.987Z,0
2017-04-01T00:03:18.227Z,0
2017-04-01T00:04:18.168Z,0
2017-04-01T00:05:17.824Z,0
2017-04-01T00:06:18.183Z,0
2017-04-01T00:07:17.978Z,0
2017-04-01T00:08:17.908Z,0
2017-04-01T00:09:17.848Z,0
2017-04-01T00:10:17.190Z,0
2017-04-01T00:11:17.524Z,0
2017-04-01T00:12:17.664Z,0
2017-04-01T00:13:17.601Z,0
2017-04-01T00:14:17.544Z,0
2017-04-01T00:15:17.478Z,0
2017-04-01T00:16:17.421Z,0
2017-04-01T00:17:17.365Z,0
2017-04-01T00:18:17.298Z,0
2017-04-01T00:19:16.937Z,0
2017-04-01T00:20:17.174Z,0
2017-04-01T00:21:17.108Z,0
2017-04-01T00:22:17.049Z,0
2017-04-01T00:23:16.688Z,0
2017-04-01T00:24:16.930Z,0
2017-04-01T00:25:16.603Z,0
2017-04-01T00:26:16.503Z,0
2017-04-01T00:27:16.741Z,0
2017-04-01T00:28:16.680Z,0
2017-04-01T00:29:16.622Z,0
2017-04-01T00:30:16.255Z,0
2017-04-01T00:31:16.497Z,0
2017-04-01T00:32:16.133Z,0
2017-04-01T00:33:16.371Z,0
2017-04-01T00:34:16.310Z,0
2017-04-01T00:35:16.254Z,0
2017-04-01T00:36:16.186Z,0
2017-04-01T00:37:16.132Z,0
2017-04-01T00:38:16.063Z,0
2017-04-01T00:39:16.001Z,0
2017-04-01T00:40:15.940Z,0
2017-04-01T00:41:15.578Z,0
2017-04-01T00:42:15.820Z,0
2017-04-01T00:43:15.757Z,0
2017-04-01T00:44:15.693Z,0
2017-04-01T00:45:15.333Z,0
2017-04-01T00:46:15.575Z,0
2017-04-01T00:47:15.508Z,0
2017-04-01T00:48:15.447Z,0
2017-04-01T00:49:15.388Z,0
2017-04-01T00:50:15.328Z,0
2017-04-01T00:51:14.965Z,0
2017-04-01T00:52:15.206Z,0
2017-04-01T00:53:15.140Z,0
2017-04-01T00:54:15.080Z,0
2017-04-01T00:55:15.018Z,0
2017-04-01T00:56:14.965Z,0
2017-04-01T00:57:14.893Z,0
2017-04-01T00:58:14.831Z,0
2017-04-01T00:59:14.769Z,0
2017-04-01T01:00:14.710Z,0
2017-04-01T01:01:14.649Z,0
2017-04-01T01:02:14.583Z,0
2017-04-01T01:03:14.577Z,0
2017-04-01T01:04:14.463Z,0
2017-04-01T01:05:14.403Z,0
2017-04-01T01:06:14.346Z,0
2017-04-01T01:07:14.287Z,0
2017-04-01T01:08:14.216Z,0
2017-04-01T01:09:14.155Z,0
2017-04-01T01:10:14.101Z,0
2017-04-01T01:11:14.030Z,0
2017-04-01T01:12:13.969Z,0
2017-04-01T01:13:13.909Z,0
2017-04-01T01:14:13.847Z,0
2017-04-01T01:15:13.489Z,0
2017-04-01T01:16:13.752Z,0
2017-04-01T01:17:13.670Z,0
2017-04-01T01:18:13.601Z,0
2017-04-01T01:19:13.540Z,0
2017-04-01T01:20:13.483Z,0
2017-04-01T01:21:13.115Z,0
2017-04-01T01:22:13.060Z,0
2017-04-01T01:23:13.295Z,0
2017-04-01T01:24:12.968Z,0
2017-04-01T01:25:13.172Z,0
2017-04-01T01:26:12.811Z,0
2017-04-01T01:27:13.049Z,0
2017-04-01T01:28:12.718Z,0
2017-04-01T01:29:12.924Z,0
2017-04-01T01:30:12.863Z,0
2017-04-01T01:31:12.805Z,0
2017-04-01T01:32:12.740Z,0
2017-04-01T01:33:12.682Z,0
2017-04-01T01:34:12.619Z,0
2017-04-01T01:35:12.556Z,0
2017-04-01T01:36:12.194Z,0
2017-04-01T01:37:12.435Z,0
2017-04-01T01:38:12.371Z,0
2017-04-01T01:39:12.009Z,0
2017-04-01T01:40:11.651Z,0
2017-04-01T01:41:12.187Z,0
2017-04-01T01:42:12.130Z,0
2017-04-01T01:43:12.061Z,0
2017-04-01T01:44:12.005Z,0
2017-04-01T01:45:12.090Z,0
2017-04-01T01:46:11.876Z,0
2017-04-01T01:47:11.818Z,0
2017-04-01T01:48:11.458Z,0
2017-04-01T01:49:11.396Z,0
2017-04-01T01:50:11.433Z,0
2017-04-01T01:51:11.576Z,0
2017-04-01T01:52:11.510Z,0
2017-04-01T01:53:11.150Z,0
2017-04-01T01:54:11.385Z,0
2017-04-01T01:55:11.329Z,0
2017-04-01T01:56:11.266Z,0
2017-04-01T01:57:11.204Z,0
2017-04-01T01:58:11.138Z,0
2017-04-01T01:59:10.779Z,0
2017-04-01T02:00:11.020Z,0
2017-04-01T02:01:10.955Z,0
2017-04-01T02:02:10.291Z,0
2017-04-01T02:03:10.838Z,0
2017-04-01T02:04:10.771Z,0
2017-04-01T02:05:10.709Z,0
2017-04-01T02:06:10.046Z,0
2017-04-01T02:07:10.589Z,0
2017-04-01T02:08:10.525Z,0
2017-04-01T02:09:10.468Z,0
2017-04-01T02:10:10.404Z,0
2017-04-01T02:11:10.339Z,0
2017-04-01T02:12:09.979Z,0
2017-04-01T02:13:10.214Z,0
2017-04-01T02:14:09.858Z,0
2017-04-01T02:15:09.796Z,0
2017-04-01T02:16:09.734Z,0
2017-04-01T02:17:09.674Z,0
2017-04-01T02:18:09.314Z,0
2017-04-01T02:19:09.846Z,0
2017-04-01T02:20:09.497Z,0
2017-04-01T02:21:09.588Z,0
2017-04-01T02:22:09.710Z,0
2017-04-01T02:23:09.611Z,0
2017-04-01T02:24:09.562Z,0
2017-04-01T02:25:09.505Z,0
2017-04-01T02:26:09.118Z,0
2017-04-01T02:27:09.362Z,0
2017-04-01T02:28:09.297Z,0
2017-04-01T02:29:09.234Z,0
2017-04-01T02:30:09.174Z,0
2017-04-01T02:31:09.029Z,0
2017-04-01T02:32:09.051Z,0
2017-04-01T02:33:08.991Z,0
2017-04-01T02:34:08.926Z,0
2017-04-01T02:35:09.011Z,0
2017-04-01T02:36:08.802Z,0
2017-04-01T02:37:08.775Z,0
2017-04-01T02:38:08.384Z,0
2017-04-01T02:39:08.618Z,0
2017-04-01T02:40:08.588Z,0
2017-04-01T02:41:08.492Z,0
2017-04-01T02:42:08.432Z,0
2017-04-01T02:43:08.369Z,0
2017-04-01T02:44:08.353Z,0
2017-04-01T02:45:08.250Z,0
2017-04-01T02:46:08.189Z,0
2017-04-01T02:47:08.123Z,0
2017-04-01T02:48:07.764Z,0
2017-04-01T02:49:08.000Z,0
2017-04-01T02:50:07.645Z,0
2017-04-01T02:51:07.916Z,0
2017-04-01T02:52:07.819Z,0
2017-04-01T02:53:07.758Z,0
2017-04-01T02:54:07.694Z,0
2017-04-01T02:55:07.335Z,0
2017-04-01T02:56:07.268Z,0
2017-04-01T02:57:07.213Z,0
2017-04-01T02:58:07.148Z,0
2017-04-01T02:59:07.385Z,0
2017-04-01T03:00:07.324Z,0
2017-04-01T03:01:07.267Z,0
2017-04-01T03:02:07.201Z,0
2017-04-01T03:03:07.137Z,0
2017-04-01T03:04:07.076Z,0
2017-04-01T03:05:07.019Z,0
2017-04-01T03:06:06.961Z,0
2017-04-01T03:07:06.894Z,0
2017-04-01T03:08:06.837Z,0
2017-04-01T03:09:06.768Z,0
2017-04-01T03:10:06.410Z,0
2017-04-01T03:11:06.348Z,0
2017-04-01T03:12:06.299Z,0
2017-04-01T03:13:06.555Z,0
2017-04-01T03:14:06.499Z,0
2017-04-01T03:15:06.405Z,0
2017-04-01T03:16:06.359Z,0
2017-04-01T03:17:06.294Z,0
2017-04-01T03:18:05.915Z,0
2017-04-01T03:19:05.884Z,0
2017-04-01T03:20:06.094Z,0
2017-04-01T03:21:05.737Z,0
2017-04-01T03:22:05.671Z,0
2017-04-01T03:23:05.620Z,0
2017-04-01T03:24:05.856Z,0
2017-04-01T03:25:05.800Z,0
2017-04-01T03:26:05.721Z,0
2017-04-01T03:27:05.670Z,0
2017-04-01T03:28:05.605Z,0
2017-04-01T03:29:05.238Z,0
2017-04-01T03:30:05.476Z,0
2017-04-01T03:31:05.419Z,0
2017-04-01T03:32:05.056Z,0
2017-04-01T03:33:05.307Z,0
2017-04-01T03:34:05.231Z,0
2017-04-01T03:35:05.173Z,0
2017-04-01T03:36:04.805Z,0
2017-04-01T03:37:05.043Z,0
2017-04-01T03:38:04.985Z,0
2017-04-01T03:39:04.921Z,0
2017-04-01T03:40:04.866Z,0
2017-04-01T03:41:04.805Z,0
2017-04-01T03:42:04.739Z,0
2017-04-01T03:43:04.376Z,0
2017-04-01T03:44:04.615Z,0
2017-04-01T03:45:04.594Z,0
2017-04-01T03:46:04.494Z,0
2017-04-01T03:47:04.431Z,0
2017-04-01T03:48:04.075Z,0
2017-04-01T03:49:04.309Z,0
2017-04-01T03:50:04.242Z,0
2017-04-01T03:51:03.888Z,0
2017-04-01T03:52:03.827Z,0
2017-04-01T03:53:04.101Z,0
2017-04-01T03:54:03.999Z,0
2017-04-01T03:55:03.936Z,0
2017-04-01T03:56:03.879Z,0
2017-04-01T03:57:03.823Z,0
2017-04-01T03:58:03.451Z,0
2017-04-01T03:59:03.691Z,0
2017-04-01T04:00:03.789Z,0
2017-04-01T04:01:03.572Z,0
2017-04-01T04:02:03.506Z,0
2017-04-01T04:03:03.446Z,0
2017-04-01T04:04:03.385Z,0
2017-04-01T04:05:03.323Z,0
2017-04-01T04:06:03.258Z,0
2017-04-01T04:07:03.199Z,0
2017-04-01T04:08:03.141Z,0
2017-04-01T04:09:03.075Z,0
2017-04-01T04:10:03.017Z,0
2017-04-01T04:11:02.659Z,0
2017-04-01T04:12:02.898Z,0
2017-04-01T04:13:02.829Z,0
2017-04-01T04:14:02.771Z,0
2017-04-01T04:15:02.405Z,0
2017-04-01T04:16:02.058Z,0
2017-04-01T04:17:02.585Z,0
2017-04-01T04:18:02.222Z,0
2017-04-01T04:19:02.461Z,0
2017-04-01T04:20:02.397Z,0
2017-04-01T04:21:02.338Z,0
2017-04-01T04:22:02.280Z,0
2017-04-01T04:23:02.221Z,0
2017-04-01T04:24:02.151Z,0
2017-04-01T04:25:02.087Z,0
2017-04-01T04:26:02.063Z,0
2017-04-01T04:27:01.967Z,0
2017-04-01T04:28:01.917Z,0
2017-04-01T04:29:01.844Z,0
2017-04-01T04:30:01.781Z,0
2017-04-01T04:31:01.754Z,0
2017-04-01T04:32:01.657Z,0
2017-04-01T04:33:01.595Z,0
2017-04-01T04:34:01.537Z,0
2017-04-01T04:35:01.476Z,0
2017-04-01T04:36:01.414Z,0
2017-04-01T04:37:01.065Z,0
2017-04-01T04:38:01.290Z,0
2017-04-01T04:39:01.230Z,0
2017-04-01T04:40:01.167Z,0
2017-04-01T04:41:01.107Z,0
2017-04-01T04:42:01.039Z,0
2017-04-01T04:43:00.681Z,0
2017-04-01T04:44:00.917Z,0
2017-04-01T04:45:00.561Z,0
2017-04-01T04:46:00.798Z,0
2017-04-01T04:47:00.434Z,0
2017-04-01T04:48:00.673Z,0
2017-04-01T04:49:00.314Z,0
2017-04-01T04:50:00.551Z,0
2017-04-01T04:51:00.491Z,0
2017-04-01T04:52:00.428Z,0
2017-04-01T04:53:00.070Z,0
2017-04-01T04:54:00.006Z,4
2017-04-01T04:54:59.944Z,4
2017-04-01T04:56:00.179Z,4
2017-04-01T04:57:00.124Z,4
2017-04-01T04:58:00.055Z,4
2017-04-01T04:58:59.995Z,4
2017-04-01T04:59:59.936Z,4
2017-04-01T05:00:59.874Z,4
2017-04-01T05:01:59.822Z,4
2017-04-01T05:02:59.450Z,0
2017-04-01T05:03:59.688Z,4
2017-04-01T05:04:59.634Z,4
2017-04-01T05:05:59.566Z,4
2017-04-01T05:06:59.519Z,4
2017-04-01T05:07:59.441Z,4
2017-04-01T05:08:59.379Z,4
2017-04-01T05:09:59.015Z,4
2017-04-01T05:10:59.261Z,4
2017-04-01T05:11:59.198Z,4
2017-04-01T05:12:59.136Z,8
2017-04-01T05:13:58.773Z,8
2017-04-01T05:14:58.712Z,4
2017-04-01T05:15:58.647Z,8
2017-04-01T05:16:58.888Z,4
2017-04-01T05:17:58.828Z,4
2017-04-01T05:18:58.765Z,4
2017-04-01T05:19:58.705Z,4
2017-04-01T05:20:58.663Z,8
2017-04-01T05:21:58.582Z,8
2017-04-01T05:22:58.219Z,8
2017-04-01T05:23:58.157Z,8
2017-04-01T05:24:58.395Z,8
2017-04-01T05:25:58.180Z,8
2017-04-01T05:26:58.270Z,8
2017-04-01T05:27:57.914Z,8
2017-04-01T05:28:58.145Z,8
2017-04-01T05:29:58.086Z,12
2017-04-01T05:30:57.725Z,12
2017-04-01T05:31:57.962Z,12
2017-04-01T05:32:57.605Z,12
2017-04-01T05:33:57.844Z,16
2017-04-01T05:34:57.476Z,12
2017-04-01T05:35:57.720Z,16
2017-04-01T05:36:57.653Z,16
2017-04-01T05:37:57.599Z,16
2017-04-01T05:38:57.231Z,16
2017-04-01T05:39:57.165Z,16
2017-04-01T05:40:57.410Z,16
2017-04-01T05:41:57.048Z,16
2017-04-01T05:42:56.986Z,20
2017-04-01T05:43:57.223Z,16
2017-04-01T05:44:56.865Z,20
2017-04-01T05:45:56.804Z,20
2017-04-01T05:46:57.040Z,16
2017-04-01T05:47:56.979Z,16
2017-04-01T05:48:56.614Z,20
2017-04-01T05:49:56.859Z,20
2017-04-01T05:50:56.488Z,20
2017-04-01T05:51:56.141Z,20
2017-04-01T05:52:56.669Z,20
2017-04-01T05:53:56.306Z,16
2017-04-01T05:54:56.557Z,16
2017-04-01T05:55:56.483Z,20
2017-04-01T05:56:56.423Z,20
2017-04-01T05:57:56.063Z,20
2017-04-01T05:58:56.296Z,16
2017-04-01T05:59:56.236Z,16
2017-04-01T06:00:56.176Z,16
2017-04-01T06:01:56.113Z,24
2017-04-01T06:02:56.048Z,28
2017-04-01T06:03:55.989Z,32
2017-04-01T06:04:55.931Z,28
2017-04-01T06:05:55.865Z,24
2017-04-01T06:06:55.505Z,24
2017-04-01T06:07:55.742Z,24
2017-04-01T06:08:55.681Z,28
2017-04-01T06:09:55.622Z,36
2017-04-01T06:10:55.559Z,32
2017-04-01T06:11:55.497Z,32
2017-04-01T06:12:55.432Z,36
2017-04-01T06:13:55.378Z,36
2017-04-01T06:14:55.013Z,32
2017-04-01T06:15:54.949Z,40
2017-04-01T06:16:54.890Z,44
2017-04-01T06:17:55.130Z,44
2017-04-01T06:18:54.767Z,40
2017-04-01T06:19:55.007Z,40
2017-04-01T06:20:54.943Z,40
2017-04-01T06:21:54.883Z,32
2017-04-01T06:22:54.822Z,36
2017-04-01T06:23:54.759Z,32
2017-04-01T06:24:54.712Z,32
2017-04-01T06:25:54.632Z,28
2017-04-01T06:26:54.570Z,32
2017-04-01T06:27:54.510Z,28
2017-04-01T06:28:54.174Z,28
2017-04-01T06:29:54.386Z,28
2017-04-01T06:30:54.325Z,28
2017-04-01T06:31:54.263Z,48
2017-04-01T06:32:53.605Z,48
2017-04-01T06:33:53.839Z,56
2017-04-01T06:34:54.085Z,52
2017-04-01T06:35:53.718Z,44
2017-04-01T06:36:53.656Z,44
2017-04-01T06:37:53.891Z,56
2017-04-01T06:38:53.532Z,60
2017-04-01T06:39:53.771Z,60
2017-04-01T06:40:53.712Z,64
2017-04-01T06:41:53.649Z,60
2017-04-01T06:42:53.580Z,64
2017-04-01T06:43:53.525Z,68
2017-04-01T06:44:53.464Z,60
2017-04-01T06:45:53.400Z,64
2017-04-01T06:46:53.369Z,72
2017-04-01T06:47:53.278Z,72
2017-04-01T06:48:53.217Z,68
2017-04-01T06:49:53.153Z,68
2017-04-01T06:50:53.091Z,68
2017-04-01T06:51:53.037Z,64
2017-04-01T06:52:52.665Z,48
2017-04-01T06:53:52.908Z,44
2017-04-01T06:54:52.543Z,40
2017-04-01T06:55:52.787Z,36
2017-04-01T06:56:52.724Z,60
2017-04-01T06:57:52.659Z,60
2017-04-01T06:58:52.600Z,60
2017-04-01T06:59:52.543Z,56
2017-04-01T07:00:52.477Z,60
2017-04-01T07:01:52.411Z,60
2017-04-01T07:02:52.349Z,60
2017-04-01T07:03:52.288Z,56
2017-04-01T07:04:52.234Z,56
2017-04-01T07:05:52.171Z,52
2017-04-01T07:06:52.112Z,60
2017-04-01T07:07:52.048Z,56
2017-04-01T07:08:51.981Z,60
2017-04-01T07:09:51.922Z,60
2017-04-01T07:10:51.864Z,64
2017-04-01T07:11:51.796Z,64
2017-04-01T07:12:51.435Z,68
2017-04-01T07:13:51.670Z,68
2017-04-01T07:14:51.309Z,52
2017-04-01T07:15:51.248Z,60
2017-04-01T07:16:51.484Z,68
2017-04-01T07:17:51.426Z,68
2017-04-01T07:18:51.364Z,60
2017-04-01T07:19:51.306Z,52
2017-04-01T07:20:51.242Z,52
2017-04-01T07:21:51.183Z,52
2017-04-01T07:22:51.115Z,52
2017-04-01T07:23:51.056Z,48
2017-04-01T07:24:50.703Z,48
2017-04-01T07:25:50.938Z,48
2017-04-01T07:26:50.872Z,44
2017-04-01T07:27:50.509Z,44
2017-04-01T07:28:50.750Z,44
2017-04-01T07:29:50.385Z,40
2017-04-01T07:30:50.630Z,40
2017-04-01T07:31:50.259Z,40
2017-04-01T07:32:50.499Z,44
2017-04-01T07:33:50.437Z,44
2017-04-01T07:34:50.377Z,40
2017-04-01T07:35:50.475Z,40
2017-04-01T07:36:50.255Z,40
2017-04-01T07:37:50.189Z,40
2017-04-01T07:38:50.129Z,40
2017-04-01T07:39:50.067Z,40
2017-04-01T07:40:50.017Z,44
2017-04-01T07:41:49.944Z,44
2017-04-01T07:42:49.584Z,40
2017-04-01T07:43:49.522Z,40
2017-04-01T07:44:49.774Z,44
2017-04-01T07:45:49.709Z,44
2017-04-01T07:46:49.335Z,48
2017-04-01T07:47:48.972Z,48
2017-04-01T07:48:49.213Z,48
2017-04-01T07:49:49.454Z,48
2017-04-01T07:50:49.386Z,44
2017-04-01T07:51:49.328Z,52
2017-04-01T07:52:49.265Z,52
2017-04-01T07:53:49.201Z,48
2017-04-01T07:54:49.144Z,48
2017-04-01T07:55:49.083Z,48
2017-04-01T07:56:49.018Z,44
2017-04-01T07:57:48.964Z,44
2017-04-01T07:58:48.899Z,44
2017-04-01T07:59:48.837Z,44
2017-04-01T08:00:48.774Z,44
2017-04-01T08:01:48.717Z,40
2017-04-01T08:02:48.348Z,44
2017-04-01T08:03:48.587Z,40
2017-04-01T08:04:48.528Z,44
2017-04-01T08:05:48.464Z,44
2017-04-01T08:06:48.402Z,44
2017-04-01T08:07:48.340Z,40
2017-04-01T08:08:48.287Z,40
2017-04-01T08:09:48.224Z,44
2017-04-01T08:10:48.163Z,48
2017-04-01T08:11:48.094Z,48
2017-04-01T08:12:48.035Z,44
2017-04-01T08:13:47.980Z,44
2017-04-01T08:14:47.918Z,44
2017-04-01T08:15:47.858Z,40
2017-04-01T08:16:47.493Z,40
2017-04-01T08:17:47.724Z,36
2017-04-01T08:18:47.666Z,40
2017-04-01T08:19:47.602Z,32
2017-04-01T08:20:47.541Z,36
2017-04-01T08:21:47.479Z,36
2017-04-01T08:22:47.415Z,32
2017-04-01T08:23:47.369Z,36
2017-04-01T08:24:47.293Z,36
2017-04-01T08:25:47.233Z,36
2017-04-01T08:26:46.869Z,36
2017-04-01T08:27:47.107Z,24
2017-04-01T08:28:47.057Z,28
2017-04-01T08:29:46.983Z,28
2017-04-01T08:30:46.923Z,32
2017-04-01T08:31:46.864Z,28
2017-04-01T08:32:46.501Z,32
2017-04-01T08:33:46.737Z,28
2017-04-01T08:34:46.676Z,32
2017-04-01T08:35:46.314Z,32
2017-04-01T08:36:46.252Z,28
2017-04-01T08:37:46.491Z,28
2017-04-01T08:38:46.428Z,32
2017-04-01T08:39:46.364Z,32
2017-04-01T08:40:46.307Z,32
2017-04-01T08:41:46.243Z,28
2017-04-01T08:42:46.187Z,32
2017-04-01T08:43:46.126Z,24
2017-04-01T08:44:46.064Z,28
2017-04-01T08:45:45.997Z,32
2017-04-01T08:46:45.941Z,32
2017-04-01T08:47:45.872Z,32
2017-04-01T08:48:45.815Z,32
2017-04-01T08:49:45.757Z,32
2017-04-01T08:50:45.390Z,28
2017-04-01T08:51:45.327Z,28
2017-04-01T08:52:45.566Z,28
2017-04-01T08:53:45.212Z,28
2017-04-01T08:54:45.443Z,28
2017-04-01T08:55:45.078Z,28
2017-04-01T08:56:45.325Z,28
2017-04-01T08:57:45.259Z,24
2017-04-01T08:58:45.203Z,24
2017-04-01T08:59:44.832Z,24
2017-04-01T09:00:45.086Z,24
2017-04-01T09:01:44.708Z,28
2017-04-01T09:02:44.960Z,24
2017-04-01T09:03:44.895Z,24
2017-04-01T09:04:44.824Z,24
2017-04-01T09:05:44.767Z,24
2017-04-01T09:06:44.701Z,24
2017-04-01T09:07:44.650Z,24
2017-04-01T09:08:44.284Z,24
2017-04-01T09:09:44.520Z,24
2017-04-01T09:10:44.457Z,24
2017-04-01T09:11:43.795Z,24
2017-04-01T09:12:44.331Z,24
2017-04-01T09:13:43.971Z,24
2017-04-01T09:14:44.210Z,24
2017-04-01T09:15:44.156Z,20
2017-04-01T09:16:44.120Z,24
2017-04-01T09:17:44.027Z,20
2017-04-01T09:18:43.964Z,20
2017-04-01T09:19:43.902Z,20
2017-04-01T09:20:43.840Z,20
2017-04-01T09:21:43.480Z,20
2017-04-01T09:22:43.419Z,24
2017-04-01T09:23:43.652Z,20
2017-04-01T09:24:43.592Z,20
2017-04-01T09:25:43.534Z,24
2017-04-01T09:26:43.469Z,24
2017-04-01T09:27:43.413Z,20
2017-04-01T09:28:43.345Z,24
2017-04-01T09:29:43.286Z,24
2017-04-01T09:30:42.927Z,24
2017-04-01T09:31:42.862Z,20
2017-04-01T09:32:43.099Z,20
2017-04-01T09:33:43.040Z,20
2017-04-01T09:34:43.014Z,20
2017-04-01T09:35:42.913Z,20
2017-04-01T09:36:42.252Z,20
2017-04-01T09:37:42.789Z,20
2017-04-01T09:38:42.730Z,20
2017-04-01T09:39:42.369Z,20
2017-04-01T09:40:42.603Z,24
2017-04-01T09:41:42.248Z,24
2017-04-01T09:42:42.511Z,24
2017-04-01T09:43:42.460Z,24
2017-04-01T09:44:42.361Z,24
2017-04-01T09:45:42.299Z,20
2017-04-01T09:46:42.241Z,20
2017-04-01T09:47:42.171Z,20
2017-04-01T09:48:42.113Z,20
2017-04-01T09:49:42.048Z,20
2017-04-01T09:50:41.690Z,20
2017-04-01T09:51:41.925Z,20
2017-04-01T09:52:41.861Z,20
2017-04-01T09:53:41.808Z,20
2017-04-01T09:54:41.742Z,20
2017-04-01T09:55:41.681Z,20
2017-04-01T09:56:41.620Z,20
2017-04-01T09:57:41.560Z,20
2017-04-01T09:58:41.198Z,20
2017-04-01T09:59:41.433Z,20
2017-04-01T10:00:41.071Z,20
2017-04-01T10:01:41.318Z,20
2017-04-01T10:02:41.266Z,20
2017-04-01T10:03:40.884Z,20
2017-04-01T10:04:41.127Z,20
2017-04-01T10:05:41.071Z,20
2017-04-01T10:06:40.403Z,20
2017-04-01T10:07:40.641Z,20
2017-04-01T10:08:40.584Z,20
2017-04-01T10:09:40.517Z,20
2017-04-01T10:10:40.760Z,20
2017-04-01T10:11:40.697Z,20
2017-04-01T10:12:40.630Z,20
2017-04-01T10:13:40.571Z,20
2017-04-01T10:14:40.509Z,24
2017-04-01T10:15:40.446Z,20
2017-04-01T10:16:40.088Z,20
2017-04-01T10:17:40.021Z,20
2017-04-01T10:18:40.258Z,20
2017-04-01T10:19:40.199Z,20
2017-04-01T10:20:40.142Z,20
2017-04-01T10:21:40.077Z,20
2017-04-01T10:22:40.020Z,20
2017-04-01T10:23:39.952Z,20
2017-04-01T10:24:39.895Z,20
2017-04-01T10:25:39.830Z,20
2017-04-01T10:26:39.770Z,20
2017-04-01T10:27:39.710Z,20
2017-04-01T10:28:39.645Z,20
2017-04-01T10:29:39.581Z,20
2017-04-01T10:30:39.527Z,20
2017-04-01T10:31:39.457Z,20
2017-04-01T10:32:39.398Z,20
2017-04-01T10:33:39.337Z,20
2017-04-01T10:34:38.977Z,20
2017-04-01T10:35:38.912Z,20
2017-04-01T10:36:39.153Z,20
2017-04-01T10:37:38.486Z,20
2017-04-01T10:38:39.065Z,20
2017-04-01T10:39:39.001Z,24
2017-04-01T10:40:38.906Z,24
2017-04-01T10:41:38.842Z,24
2017-04-01T10:42:38.793Z,24
2017-04-01T10:43:38.718Z,24
2017-04-01T10:44:38.660Z,20
2017-04-01T10:45:38.595Z,20
2017-04-01T10:46:38.538Z,20
2017-04-01T10:47:38.474Z,20
2017-04-01T10:48:38.415Z,20
2017-04-01T10:49:38.348Z,20
2017-04-01T10:50:38.289Z,20
2017-04-01T10:51:38.227Z,20
2017-04-01T10:52:37.865Z,24
2017-04-01T10:53:38.100Z,24
2017-04-01T10:54:38.041Z,24
2017-04-01T10:55:37.982Z,24
2017-04-01T10:56:37.617Z,24
2017-04-01T10:57:37.853Z,24
2017-04-01T10:58:37.794Z,24
2017-04-01T10:59:37.731Z,24
2017-04-01T11:00:37.830Z,20
2017-04-01T11:01:37.616Z,20
2017-04-01T11:02:37.548Z,24
2017-04-01T11:03:37.188Z,24
2017-04-01T11:04:37.426Z,24
2017-04-01T11:05:37.063Z,24
2017-04-01T11:06:37.305Z,24
2017-04-01T11:07:37.241Z,24
2017-04-01T11:08:37.181Z,24
2017-04-01T11:09:37.120Z,24
2017-04-01T11:10:37.081Z,24
2017-04-01T11:11:36.996Z,24
2017-04-01T11:12:36.932Z,24
2017-04-01T11:13:36.871Z,24
2017-04-01T11:14:36.812Z,24
2017-04-01T11:15:36.745Z,24
2017-04-01T11:16:36.385Z,24
2017-04-01T11:17:36.621Z,24
2017-04-01T11:18:36.561Z,24
2017-04-01T11:19:36.497Z,24
2017-04-01T11:20:36.447Z,24
2017-04-01T11:21:36.376Z,24
2017-04-01T11:22:36.017Z,24
2017-04-01T11:23:36.251Z,24
2017-04-01T11:24:36.190Z,24
2017-04-01T11:25:36.137Z,24
2017-04-01T11:26:36.068Z,24
2017-04-01T11:27:36.006Z,24
2017-04-01T11:28:35.949Z,24
2017-04-01T11:29:35.584Z,20
2017-04-01T11:30:35.829Z,20
2017-04-01T11:31:35.760Z,24
2017-04-01T11:32:35.700Z,20
2017-04-01T11:33:35.341Z,20
2017-04-01T11:34:35.571Z,20
2017-04-01T11:35:35.512Z,20
2017-04-01T11:36:35.457Z,24
2017-04-01T11:37:35.391Z,24
2017-04-01T11:38:35.326Z,24
2017-04-01T11:39:35.266Z,24
2017-04-01T11:40:35.205Z,24
2017-04-01T11:41:35.147Z,24
2017-04-01T11:42:35.087Z,24
2017-04-01T11:43:35.021Z,24
2017-04-01T11:44:34.961Z,24
2017-04-01T11:45:34.898Z,24
2017-04-01T11:46:34.537Z,24
2017-04-01T11:47:34.775Z,24
2017-04-01T11:48:34.712Z,24
2017-04-01T11:49:34.650Z,24
2017-04-01T11:50:34.588Z,24
2017-04-01T11:51:34.532Z,24
2017-04-01T11:52:34.467Z,24
2017-04-01T11:53:34.402Z,24
2017-04-01T11:54:34.340Z,20
2017-04-01T11:55:34.284Z,24
2017-04-01T11:56:34.224Z,24
2017-04-01T11:57:34.155Z,24
2017-04-01T11:58:34.095Z,24
2017-04-01T11:59:34.034Z,24
2017-04-01T12:00:33.971Z,24
2017-04-01T12:01:33.916Z,24
2017-04-01T12:02:33.851Z,24
2017-04-01T12:03:33.785Z,24
2017-04-01T12:04:33.724Z,24
2017-04-01T12:05:33.364Z,24
2017-04-01T12:06:33.602Z,24
2017-04-01T12:07:33.539Z,24
2017-04-01T12:08:33.482Z,24
2017-04-01T12:09:33.421Z,24
2017-04-01T12:10:33.358Z,24
2017-04-01T12:11:33.294Z,24
2017-04-01T12:12:33.236Z,24
2017-04-01T12:13:33.175Z,24
2017-04-01T12:14:32.810Z,24
2017-04-01T12:15:33.045Z,24
2017-04-01T12:16:32.683Z,28
2017-04-01T12:17:32.620Z,24
2017-04-01T12:18:32.859Z,32
2017-04-01T12:19:32.804Z,32
2017-04-01T12:20:32.437Z,36
2017-04-01T12:21:32.692Z,36
2017-04-01T12:22:32.619Z,36
2017-04-01T12:23:32.254Z,36
2017-04-01T12:24:32.498Z,36
2017-04-01T12:25:32.430Z,32
2017-04-01T12:26:32.369Z,28
2017-04-01T12:27:32.306Z,28
2017-04-01T12:28:32.246Z,28
2017-04-01T12:29:32.184Z,28
2017-04-01T12:30:32.125Z,24
2017-04-01T12:31:32.063Z,24
2017-04-01T12:32:31.997Z,24
2017-04-01T12:33:31.937Z,24
2017-04-01T12:34:31.879Z,24
2017-04-01T12:35:31.813Z,20
2017-04-01T12:36:31.754Z,24
2017-04-01T12:37:31.694Z,20
2017-04-01T12:38:31.628Z,20
2017-04-01T12:39:31.578Z,20
2017-04-01T12:40:31.214Z,24
2017-04-01T12:41:30.857Z,28
2017-04-01T12:42:31.381Z,28
2017-04-01T12:43:31.030Z,28
2017-04-01T12:44:30.961Z,28
2017-04-01T12:45:30.898Z,28
2017-04-01T12:46:30.838Z,28
2017-04-01T12:47:30.776Z,28
2017-04-01T12:48:30.712Z,28
2017-04-01T12:49:30.956Z,28
2017-04-01T12:50:30.594Z,28
2017-04-01T12:51:30.531Z,24
2017-04-01T12:52:30.768Z,24
2017-04-01T12:53:30.706Z,24
2017-04-01T12:54:30.646Z,20
2017-04-01T12:55:30.584Z,24
2017-04-01T12:56:30.520Z,24
2017-04-01T12:57:30.163Z,28
2017-04-01T12:58:30.397Z,24
2017-04-01T12:59:30.335Z,28
2017-04-01T13:00:30.276Z,24
2017-04-01T13:01:30.213Z,24
2017-04-01T13:02:30.153Z,28
2017-04-01T13:03:30.092Z,28
2017-04-01T13:04:30.030Z,28
2017-04-01T13:05:29.970Z,28
2017-04-01T13:06:29.904Z,28
2017-04-01T13:07:29.549Z,28
2017-04-01T13:08:29.483Z,28
2017-04-01T13:09:29.720Z,28
2017-04-01T13:10:29.664Z,28
2017-04-01T13:11:29.296Z,28
2017-04-01T13:12:29.537Z,28
2017-04-01T13:13:28.876Z,28
2017-04-01T13:14:29.411Z,28
2017-04-01T13:15:29.352Z,24
2017-04-01T13:16:29.292Z,24
2017-04-01T13:17:29.225Z,28
2017-04-01T13:18:29.170Z,28
2017-04-01T13:19:29.110Z,28
2017-04-01T13:20:28.742Z,24
2017-04-01T13:21:28.380Z,24
2017-04-01T13:22:28.655Z,24
2017-04-01T13:23:28.870Z,20
2017-04-01T13:24:28.798Z,28
2017-04-01T13:25:28.741Z,24
2017-04-01T13:26:28.679Z,24
2017-04-01T13:27:28.613Z,20
2017-04-01T13:28:28.550Z,24
2017-04-01T13:29:28.187Z,32
2017-04-01T13:30:28.428Z,32
2017-04-01T13:31:27.774Z,28
2017-04-01T13:32:28.303Z,32
2017-04-01T13:33:28.240Z,32
2017-04-01T13:34:27.582Z,28
2017-04-01T13:35:27.851Z,28
2017-04-01T13:36:28.056Z,28
2017-04-01T13:37:27.995Z,28
2017-04-01T13:38:27.932Z,24
2017-04-01T13:39:27.595Z,28
2017-04-01T13:40:27.822Z,28
2017-04-01T13:41:27.760Z,28
2017-04-01T13:42:27.687Z,24
2017-04-01T13:43:27.323Z,28
2017-04-01T13:44:27.563Z,28
2017-04-01T13:45:27.500Z,24
2017-04-01T13:46:27.443Z,24
2017-04-01T13:47:27.394Z,24
2017-04-01T13:48:27.020Z,20
2017-04-01T13:49:27.254Z,20
2017-04-01T13:50:27.194Z,20
2017-04-01T13:51:26.834Z,24
2017-04-01T13:52:27.072Z,24
2017-04-01T13:53:27.008Z,20
2017-04-01T13:54:26.947Z,20
2017-04-01T13:55:26.888Z,24
2017-04-01T13:56:26.824Z,24
2017-04-01T13:57:26.761Z,20
2017-04-01T13:58:26.419Z,20
2017-04-01T13:59:26.643Z,20
2017-04-01T14:00:26.280Z,20
2017-04-01T14:01:26.530Z,24
2017-04-01T14:02:26.158Z,24
2017-04-01T14:03:26.095Z,20
2017-04-01T14:04:26.332Z,20
2017-04-01T14:05:26.276Z,20
2017-04-01T14:06:26.210Z,20
2017-04-01T14:07:26.150Z,20
2017-04-01T14:08:26.083Z,20
2017-04-01T14:09:25.728Z,20
2017-04-01T14:10:25.664Z,16
2017-04-01T14:11:25.607Z,20
2017-04-01T14:12:25.863Z,20
2017-04-01T14:13:25.502Z,16
2017-04-01T14:14:25.718Z,20
2017-04-01T14:15:25.370Z,20
2017-04-01T14:16:25.614Z,20
2017-04-01T14:17:25.552Z,20
2017-04-01T14:18:25.472Z,20
2017-04-01T14:19:24.825Z,20
2017-04-01T14:20:25.056Z,20
2017-04-01T14:21:24.989Z,20
2017-04-01T14:22:25.260Z,20
2017-04-01T14:23:24.877Z,20
2017-04-01T14:24:25.133Z,20
2017-04-01T14:25:25.046Z,20
2017-04-01T14:26:24.978Z,20
2017-04-01T14:27:24.930Z,20